Time;durP1;ratioP1;P1;durP2;ratioP2;P2;SDS_P1;SDS_P2;PMS_P1;PMS_P2;Temp;Humidity;BMP_temperature;BMP_pressure;BME280_temperature;BME280_humidity;BME280_pressure;Samples;Min_cycle;Max_cycle;Signal;HPM_P1;HPM_P2
2023/06/05 00:01:20;;;;;;;;;;;;;;;22.61;37.69;95710.44;10300582;28;1903;-63
2023/06/05 00:06:20;;;;;;;;;;;;;;;22.61;37.74;95705.16;10304070;28;1895;-63
2023/06/05 00:11:21;;;;;;;;;;;;;;;22.60;38.11;95706.22;10291822;28;1951;-64
2023/06/05 00:16:22;;;;;;;;;;;;;;;22.60;38.21;95708.09;10304626;28;1950;-64
2023/06/05 00:21:23;;;;;;;;;;;;;;;22.58;38.20;95697.81;10306743;28;2125;-64
2023/06/05 00:26:23;;;;;;;;;;;;;;;22.57;38.35;95690.91;10312483;28;1906;-63
2023/06/05 00:31:23;;;;;;;;;;;;;;;22.56;38.50;95685.91;10311878;28;1931;-64
2023/06/05 00:36:24;;;;;;;;;;;;;;;22.56;38.50;95683.28;10308655;28;1969;-63
2023/06/05 00:41:24;;;;;;;;;;;;;;;22.55;38.81;95682.50;10309407;28;1836;-63
2023/06/05 00:46:24;;;;;;;;;;;;;;;22.55;38.78;95682.50;10300302;28;4611;-63
2023/06/05 00:51:25;;;;;;;;;;;;;;;22.57;38.66;95676.91;10297193;28;1957;-63
2023/06/05 00:56:25;;;;;;;;;;;;;;;22.57;39.03;95682.19;10309263;28;1955;-63
2023/06/05 01:01:28;;;;;;;;;;;;;;;22.56;38.85;95670.88;10311490;28;2046;-63
2023/06/05 01:06:28;;;;;;;;;;;;;;;22.57;39.06;95671.63;10293382;28;2256;-63
2023/06/05 01:11:35;;;;;;;;;;;;;;;22.57;39.26;95671.63;10290843;28;2030;-63
2023/06/05 01:16:36;;;;;;;;;;;;;;;22.58;39.54;95666.09;10312116;28;2397;-63
2023/06/05 01:21:36;;;;;;;;;;;;;;;22.59;39.75;95672.16;10305558;28;1979;-63
2023/06/05 01:26:40;;;;;;;;;;;;;;;22.57;40.11;95661.84;10305568;28;1898;-63
2023/06/05 01:31:41;;;;;;;;;;;;;;;22.60;39.85;95671.09;10306747;28;1998;-63
2023/06/05 01:36:41;;;;;;;;;;;;;;;22.58;40.22;95668.75;10288024;28;1954;-64
2023/06/05 01:41:42;;;;;;;;;;;;;;;22.58;40.58;95663.47;10305601;28;1962;-63
2023/06/05 01:46:42;;;;;;;;;;;;;;;22.58;40.28;95660.81;10302763;28;2113;-63
2023/06/05 01:51:42;;;;;;;;;;;;;;;22.58;40.67;95652.91;10306512;28;1905;-63
2023/06/05 01:56:43;;;;;;;;;;;;;;;22.58;40.78;95658.19;10296825;28;1936;-63
2023/06/05 02:01:46;;;;;;;;;;;;;;;22.58;40.72;95652.91;10300887;28;1967;-63
2023/06/05 02:06:48;;;;;;;;;;;;;;;22.58;40.79;95652.91;10299376;28;1936;-63
2023/06/05 02:11:49;;;;;;;;;;;;;;;22.57;40.72;95651.28;10262821;28;1067747;-63
2023/06/05 02:16:49;;;;;;;;;;;;;;;22.59;41.01;95653.66;10302772;28;2003;-63
2023/06/05 02:21:53;;;;;;;;;;;;;;;22.59;40.92;95651.81;10305215;28;1894;-63
2023/06/05 02:26:53;;;;;;;;;;;;;;;22.59;40.90;95656.31;10303208;28;1894;-63
2023/06/05 02:31:53;;;;;;;;;;;;;;;22.59;40.77;95653.66;10307733;28;1930;-63
2023/06/05 02:36:53;;;;;;;;;;;;;;;22.60;40.97;95658.69;10300089;28;2008;-62
2023/06/05 02:41:55;;;;;;;;;;;;;;;22.60;41.05;95661.31;10306056;28;1871;-63
2023/06/05 02:46:56;;;;;;;;;;;;;;;22.59;41.17;95658.94;10299567;28;4433;-63
2023/06/05 02:51:56;;;;;;;;;;;;;;;22.60;40.79;95658.69;10303083;28;1846;-63
2023/06/05 02:57:00;;;;;;;;;;;;;;;22.62;40.42;95663.66;10302354;28;1971;-63
2023/06/05 03:02:00;;;;;;;;;;;;;;;22.62;40.74;95664.47;10302217;28;1909;-63
2023/06/05 03:07:03;;;;;;;;;;;;;;;22.61;40.71;95660.22;10299869;28;2336;-63
2023/06/05 03:12:04;;;;;;;;;;;;;;;22.61;41.09;95665.50;10299301;28;2003;-63
2023/06/05 03:17:05;;;;;;;;;;;;;;;22.60;41.08;95661.31;10303655;28;2047;-63
2023/06/05 03:22:05;;;;;;;;;;;;;;;22.62;40.87;95663.66;10308930;28;1863;-63
2023/06/05 03:27:05;;;;;;;;;;;;;;;22.62;40.77;95659.16;10306408;28;1883;-63
2023/06/05 03:32:06;;;;;;;;;;;;;;;22.59;41.17;95665.03;10299522;28;1886;-63
2023/06/05 03:37:06;;;;;;;;;;;;;;;22.61;40.83;95659.44;10294672;28;1955;-63
2023/06/05 03:42:09;;;;;;;;;;;;;;;22.60;41.27;95655.25;10304762;28;2100;-63
2023/06/05 03:47:09;;;;;;;;;;;;;;;22.60;40.92;95655.25;10301913;28;4388;-63
2023/06/05 03:52:10;;;;;;;;;;;;;;;22.60;41.08;95650.75;10310877;28;1899;-63
2023/06/05 03:57:14;;;;;;;;;;;;;;;22.60;41.27;95652.59;10311557;28;1911;-63
2023/06/05 04:02:15;;;;;;;;;;;;;;;22.59;41.00;95659.72;10309953;28;1958;-62
2023/06/05 04:07:15;;;;;;;;;;;;;;;22.57;41.05;95656.56;10294412;28;2708;-63
2023/06/05 04:12:16;;;;;;;;;;;;;;;22.57;41.50;95655.78;10307528;28;1909;-63
2023/06/05 04:17:17;;;;;;;;;;;;;;;22.57;41.19;95659.22;10310719;28;1973;-64
2023/06/05 04:22:17;;;;;;;;;;;;;;;22.57;41.55;95667.13;10309697;28;1862;-63
2023/06/05 04:27:17;;;;;;;;;;;;;;;22.58;41.20;95665.31;10306336;28;1850;-63
2023/06/05 04:32:17;;;;;;;;;;;;;;;22.56;41.49;95660.28;10304881;28;1894;-63
2023/06/05 04:37:18;;;;;;;;;;;;;;;22.56;41.59;95654.22;10309314;28;1971;-64
2023/06/05 04:42:18;;;;;;;;;;;;;;;22.53;41.64;95657.41;10309993;28;1921;-63
2023/06/05 04:47:18;;;;;;;;;;;;;;;22.53;41.64;95663.50;10303927;28;1990;-63
2023/06/05 04:52:20;;;;;;;;;;;;;;;22.53;41.43;95666.13;10307637;28;1898;-63
2023/06/05 04:57:20;;;;;;;;;;;;;;;22.52;41.78;95669.06;10308639;28;1968;-63
2023/06/05 05:02:21;;;;;;;;;;;;;;;22.52;41.86;95664.56;10308452;28;2225;-63
2023/06/05 05:07:22;;;;;;;;;;;;;;;22.51;41.71;95681.50;10307410;28;1851;-63
2023/06/05 05:12:22;;;;;;;;;;;;;;;22.51;41.75;95681.50;10306456;28;1910;-62
2023/06/05 05:17:22;;;;;;;;;;;;;;;22.50;42.08;95679.91;10312468;28;2178;-62
2023/06/05 05:22:23;;;;;;;;;;;;;;;22.50;42.16;95677.25;10308945;28;1883;-63
2023/06/05 05:27:24;;;;;;;;;;;;;;;22.52;42.09;95679.66;10309620;28;1987;-63
2023/06/05 05:32:24;;;;;;;;;;;;;;;22.52;42.08;95682.28;10307750;28;1918;-63
2023/06/05 05:37:25;;;;;;;;;;;;;;;22.52;41.99;95685.69;10306102;28;1953;-64
2023/06/05 05:42:26;;;;;;;;;;;;;;;22.50;42.49;95679.16;10305262;28;1897;-61
2023/06/05 05:47:26;;;;;;;;;;;;;;;22.51;42.31;95684.13;10305380;28;4429;-62
2023/06/05 05:52:26;;;;;;;;;;;;;;;22.52;42.91;95685.69;10310543;28;1871;-62
2023/06/05 05:57:27;;;;;;;;;;;;;;;22.52;42.45;95696.25;10304227;28;1954;-64
2023/06/05 06:02:28;;;;;;;;;;;;;;;22.52;42.79;95688.31;10303061;28;1919;-63
2023/06/05 06:07:28;;;;;;;;;;;;;;;22.53;42.61;95687.28;10297283;28;1826;-63
2023/06/05 06:12:29;;;;;;;;;;;;;;;22.53;42.87;95697.06;10304806;28;1859;-62
2023/06/05 06:17:29;;;;;;;;;;;;;;;22.55;43.13;95695.69;10302155;28;1948;-60
2023/06/05 06:22:30;;;;;;;;;;;;;;;22.54;43.36;95699.44;10307234;28;1949;-63
2023/06/05 06:27:30;;;;;;;;;;;;;;;22.57;43.42;95695.41;10300348;28;1890;-63
2023/06/05 06:32:30;;;;;;;;;;;;;;;22.56;43.39;95692.00;10301789;28;1918;-62
2023/06/05 06:37:31;;;;;;;;;;;;;;;22.53;43.51;95700.47;10304858;28;2007;-63
2023/06/05 06:42:31;;;;;;;;;;;;;;;22.52;43.47;95698.91;10304982;28;1982;-63
2023/06/05 06:47:32;;;;;;;;;;;;;;;22.51;43.26;95699.97;10301356;28;1805;-63
2023/06/05 06:52:32;;;;;;;;;;;;;;;22.50;43.58;95708.97;10303796;28;2252;-62
2023/06/05 06:57:32;;;;;;;;;;;;;;;22.48;43.21;95705.81;10298468;28;1985;-63
2023/06/05 07:02:33;;;;;;;;;;;;;;;22.49;43.46;95710.06;10302146;28;1839;-63
2023/06/05 07:07:33;;;;;;;;;;;;;;;22.48;43.39;95708.47;10304353;28;1946;-63
2023/06/05 07:12:34;;;;;;;;;;;;;;;22.47;43.36;95704.28;10301289;28;2057;-63
2023/06/05 07:17:34;;;;;;;;;;;;;;;22.46;43.53;95701.94;10305068;28;1915;-63
2023/06/05 07:22:34;;;;;;;;;;;;;;;22.46;43.54;95705.31;10304865;28;1894;-62
2023/06/05 07:27:35;;;;;;;;;;;;;;;22.47;43.46;95701.63;10306155;28;1917;-63
2023/06/05 07:32:35;;;;;;;;;;;;;;;22.48;43.50;95705.81;10307513;28;2109;-63
2023/06/05 07:37:36;;;;;;;;;;;;;;;22.46;43.59;95702.69;10309345;28;2027;-63
2023/06/05 07:42:36;;;;;;;;;;;;;;;22.49;43.68;95706.63;10310087;28;2076;-62
2023/06/05 07:47:36;;;;;;;;;;;;;;;22.50;43.62;95708.19;10310349;28;4805;-63
2023/06/05 07:52:37;;;;;;;;;;;;;;;22.49;43.73;95711.91;10308824;28;1860;-63
2023/06/05 07:57:38;;;;;;;;;;;;;;;22.48;43.30;95695.25;10309099;28;1937;-63
2023/06/05 08:02:38;;;;;;;;;;;;;;;22.49;43.66;95702.13;10310900;28;1836;-63
2023/06/05 08:07:38;;;;;;;;;;;;;;;22.49;43.92;95696.84;10309366;28;1898;-62
2023/06/05 08:12:39;;;;;;;;;;;;;;;22.51;44.06;95697.34;10309895;28;2057;-63
2023/06/05 08:17:39;;;;;;;;;;;;;;;22.52;43.84;95701.53;10306878;28;1965;-62
2023/06/05 08:22:40;;;;;;;;;;;;;;;22.53;43.97;95697.06;10308531;28;1903;-62
2023/06/05 08:27:40;;;;;;;;;;;;;;;22.54;43.63;95694.16;10296503;28;1898;-63
2023/06/05 08:32:40;;;;;;;;;;;;;;;22.53;43.49;95687.28;10307180;28;1839;-63
2023/06/05 08:37:41;;;;;;;;;;;;;;;22.56;43.53;95684.06;10311371;28;1907;-63
2023/06/05 08:42:41;;;;;;;;;;;;;;;22.57;43.68;95687.47;10310038;28;1946;-63
2023/06/05 08:47:41;;;;;;;;;;;;;;;22.57;43.79;95684.84;10305583;28;4200;-63
2023/06/05 08:52:42;;;;;;;;;;;;;;;22.57;43.54;95688.28;10308025;28;1973;-63
2023/06/05 08:57:42;;;;;;;;;;;;;;;22.59;43.45;95686.16;10310895;28;1887;-63
2023/06/05 09:02:48;;;;;;;;;;;;;;;22.59;43.45;95680.06;10304578;28;1882;-62
2023/06/05 09:07:48;;;;;;;;;;;;;;;22.61;43.18;95683.22;10309254;28;1923;-63
2023/06/05 09:12:52;;;;;;;;;;;;;;;22.62;43.45;95680.31;10306317;28;1917;-63
2023/06/05 09:18:08;;;;;;;;;;;;;;;22.62;43.43;95682.94;10309130;28;1991;-62
2023/06/05 09:23:22;;;;;;;;;;;;;;;22.62;43.25;95680.31;10304716;28;1910;-62
2023/06/05 09:28:22;;;;;;;;;;;;;;;22.63;43.22;95681.88;10306305;28;1879;-62
2023/06/05 09:33:23;;;;;;;;;;;;;;;22.63;43.22;95667.84;10302163;28;1957;-62
2023/06/05 09:38:30;;;;;;;;;;;;;;;22.63;43.14;95673.16;10306653;28;1974;-62
2023/06/05 09:43:30;;;;;;;;;;;;;;;22.63;43.09;95673.16;10304979;28;4416;-62
2023/06/05 09:48:32;;;;;;;;;;;;;;;22.65;43.07;95665.72;10304293;28;1883;-62
2023/06/05 09:53:32;;;;;;;;;;;;;;;22.65;43.13;95666.50;10305690;28;1914;-62
2023/06/05 09:58:33;;;;;;;;;;;;;;;22.67;43.28;95662.81;10302229;28;1886;-62
2023/06/05 10:03:33;;;;;;;;;;;;;;;22.69;43.03;95652.72;10292561;28;1855;-61
2023/06/05 10:08:34;;;;;;;;;;;;;;;22.70;43.06;95657.72;10307186;28;1832;-64
2023/06/05 10:13:34;;;;;;;;;;;;;;;22.71;43.19;95648.72;10290018;28;1884;-60
2023/06/05 10:18:34;;;;;;;;;;;;;;;22.71;42.88;95655.88;10299796;28;1914;-61
2023/06/05 10:23:35;;;;;;;;;;;;;;;22.70;42.66;95646.34;10300902;28;1874;-60
2023/06/05 10:28:35;;;;;;;;;;;;;;;22.68;42.61;95638.72;10307167;28;1912;-61
2023/06/05 10:33:46;;;;;;;;;;;;;;;22.71;42.66;95640.00;10297636;28;1822;-61
2023/06/05 10:38:46;;;;;;;;;;;;;;;22.71;42.61;95637.38;10294025;28;2347;-61
2023/06/05 10:43:47;;;;;;;;;;;;;;;22.70;42.60;95633.94;10287525;28;4475;-61
2023/06/05 10:49:12;;;;;;;;;;;;;;;22.70;42.35;95633.94;10290599;28;1919;-61
2023/06/05 10:54:16;;;;;;;;;;;;;;;22.70;42.35;95630.50;10302327;28;1901;-61
2023/06/05 10:59:17;;;;;;;;;;;;;;;22.72;42.24;95641.56;10298936;28;1962;-61
2023/06/05 11:04:18;;;;;;;;;;;;;;;22.71;42.13;95627.56;10299852;28;1875;-61
2023/06/05 11:09:18;;;;;;;;;;;;;;;22.72;42.19;95636.28;10299813;28;1914;-61
2023/06/05 11:14:19;;;;;;;;;;;;;;;22.71;42.21;95629.44;10296249;28;1928;-61
2023/06/05 11:19:22;;;;;;;;;;;;;;;22.71;41.88;95629.44;10286705;28;2043;-61
2023/06/05 11:24:22;;;;;;;;;;;;;;;22.69;41.40;95621.03;10298879;28;1909;-61
2023/06/05 11:29:25;;;;;;;;;;;;;;;22.71;42.03;95619.63;10300815;28;1894;-61
2023/06/05 11:34:27;;;;;;;;;;;;;;;22.72;42.10;95609.84;10314645;28;2153;-60
2023/06/05 11:39:41;;;;;;;;;;;;;;;22.74;42.23;95613.00;10303240;28;1950;-61
2023/06/05 11:44:41;;;;;;;;;;;;;;;22.75;42.25;95611.94;10302208;28;4283;-60
2023/06/05 11:49:42;;;;;;;;;;;;;;;22.77;42.23;95623.00;10301558;28;1907;-61
2023/06/05 11:54:52;;;;;;;;;;;;;;;22.75;42.14;95617.22;10286734;28;1920;-61
2023/06/05 11:59:52;;;;;;;;;;;;;;;22.76;41.88;95610.84;10303586;28;2149;-61
2023/06/05 12:04:53;;;;;;;;;;;;;;;22.77;42.15;95607.94;10298853;28;1862;-61
2023/06/05 12:09:53;;;;;;;;;;;;;;;22.77;42.44;95605.28;10281659;28;2008;-61
2023/06/05 12:14:54;;;;;;;;;;;;;;;22.79;42.33;95600.50;10307794;28;1870;-61
2023/06/05 12:19:54;;;;;;;;;;;;;;;22.82;42.55;95593.81;10310630;28;1979;-61
2023/06/05 12:24:54;;;;;;;;;;;;;;;22.83;42.40;95603.34;10313634;28;1886;-61
2023/06/05 12:29:55;;;;;;;;;;;;;;;22.83;42.26;95600.69;10307863;28;2259;-61
2023/06/05 12:34:56;;;;;;;;;;;;;;;22.83;42.21;95590.91;10309923;28;1936;-61
2023/06/05 12:39:58;;;;;;;;;;;;;;;22.85;42.51;95587.97;10308199;28;1989;-61
2023/06/05 12:44:58;;;;;;;;;;;;;;;22.84;42.23;95575.81;10310940;28;4580;-61
2023/06/05 12:49:58;;;;;;;;;;;;;;;22.85;42.27;95577.41;10294247;28;1948;-61
2023/06/05 12:54:59;;;;;;;;;;;;;;;22.85;42.57;95585.34;10310213;28;1855;-61
2023/06/05 13:00:00;;;;;;;;;;;;;;;22.86;42.34;95584.25;10294021;28;1956;-61
2023/06/05 13:05:00;;;;;;;;;;;;;;;22.86;42.53;95579.75;10310427;28;1903;-61
2023/06/05 13:10:00;;;;;;;;;;;;;;;22.87;42.61;95585.81;10301719;28;2137;-61
2023/06/05 13:15:02;;;;;;;;;;;;;;;22.87;42.94;95583.97;10304897;28;1915;-61
2023/06/05 13:20:11;;;;;;;;;;;;;;;22.89;42.73;95591.59;10304368;28;1973;-61
2023/06/05 13:25:12;;;;;;;;;;;;;;;22.90;42.87;95579.94;10308605;28;2441;-61
2023/06/05 13:30:13;;;;;;;;;;;;;;;22.91;42.97;95584.16;10302800;28;1925;-61
2023/06/05 13:35:13;;;;;;;;;;;;;;;22.90;42.92;95585.22;10305676;28;1918;-61
2023/06/05 13:40:15;;;;;;;;;;;;;;;22.90;42.67;95585.22;10306946;28;1950;-61
2023/06/05 13:45:15;;;;;;;;;;;;;;;22.91;42.79;95578.88;10299815;28;1842;-61
2023/06/05 13:50:15;;;;;;;;;;;;;;;22.92;42.89;95578.56;10314238;28;1838;-60
2023/06/05 13:55:15;;;;;;;;;;;;;;;22.92;42.79;95562.72;10302642;28;1867;-60
2023/06/05 14:00:16;;;;;;;;;;;;;;;22.92;43.12;95565.34;10305054;28;1891;-61
2023/06/05 14:05:16;;;;;;;;;;;;;;;22.93;43.13;95563.50;10303126;28;1967;-61
2023/06/05 14:10:17;;;;;;;;;;;;;;;22.93;42.79;95568.78;10308781;28;1946;-61
2023/06/05 14:15:18;;;;;;;;;;;;;;;22.93;43.13;95559.00;10301543;28;1874;-61
2023/06/05 14:20:18;;;;;;;;;;;;;;;22.93;43.21;95558.22;10302673;28;1933;-61
2023/06/05 14:25:19;;;;;;;;;;;;;;;22.93;43.17;95547.66;10302033;28;1899;-61
2023/06/05 14:30:19;;;;;;;;;;;;;;;22.94;43.20;95551.84;10306287;28;1914;-61
2023/06/05 14:35:20;;;;;;;;;;;;;;;22.93;43.05;95547.66;10302624;28;2089;-61
2023/06/05 14:40:21;;;;;;;;;;;;;;;22.94;43.09;95554.50;10298449;28;1938;-61
2023/06/05 14:45:21;;;;;;;;;;;;;;;22.94;43.11;95554.50;10302910;28;4456;-61
2023/06/05 14:50:21;;;;;;;;;;;;;;;22.94;43.14;95549.19;10301127;28;1886;-61
2023/06/05 14:55:22;;;;;;;;;;;;;;;22.94;43.12;95549.19;10303805;28;1887;-61
2023/06/05 15:00:22;;;;;;;;;;;;;;;22.93;43.11;95537.88;10302406;28;1946;-61
2023/06/05 15:05:22;;;;;;;;;;;;;;;22.94;43.17;95547.34;10302340;28;1840;-61
2023/06/05 15:10:22;;;;;;;;;;;;;;;22.94;43.17;95549.19;10305333;28;1889;-61
2023/06/05 15:15:23;;;;;;;;;;;;;;;22.95;43.18;95548.94;10301679;28;1937;-61
2023/06/05 15:20:23;;;;;;;;;;;;;;;22.96;42.97;95562.91;10303055;28;2439;-61
2023/06/05 15:25:25;;;;;;;;;;;;;;;22.95;43.15;95556.84;10302614;28;1808;-62
2023/06/05 15:30:25;;;;;;;;;;;;;;;22.97;43.04;95549.41;10299554;28;1883;-61
2023/06/05 15:35:27;;;;;;;;;;;;;;;22.97;43.00;95548.63;10302929;28;1909;-61
2023/06/05 15:40:27;;;;;;;;;;;;;;;22.97;42.97;95559.19;10296125;28;1910;-61
2023/06/05 15:45:27;;;;;;;;;;;;;;;22.96;43.22;95552.34;10285788;28;4532;-61
2023/06/05 15:50:28;;;;;;;;;;;;;;;22.96;43.02;95553.13;10302838;28;1929;-61
2023/06/05 15:55:28;;;;;;;;;;;;;;;22.96;43.31;95558.41;10304515;28;1918;-61
2023/06/05 16:00:28;;;;;;;;;;;;;;;22.97;42.92;95560.00;10307348;28;1910;-61
2023/06/05 16:05:28;;;;;;;;;;;;;;;22.97;43.24;95548.63;10308376;28;1875;-61
2023/06/05 16:10:29;;;;;;;;;;;;;;;22.97;43.17;95553.91;10303267;28;1949;-61
2023/06/05 16:15:29;;;;;;;;;;;;;;;22.96;43.12;95557.63;10309740;28;2339;-61
2023/06/05 16:20:29;;;;;;;;;;;;;;;22.96;43.10;95558.41;10308947;28;1906;-61
2023/06/05 16:25:29;;;;;;;;;;;;;;;22.95;43.31;95562.16;10310153;28;1917;-61
2023/06/05 16:30:30;;;;;;;;;;;;;;;22.96;43.32;95557.63;10302715;28;1855;-61
2023/06/05 16:35:30;;;;;;;;;;;;;;;22.96;43.34;95560.25;10309900;28;1950;-61
2023/06/05 16:40:30;;;;;;;;;;;;;;;22.95;43.29;95556.84;10304230;28;2060;-61
2023/06/05 16:45:33;;;;;;;;;;;;;;;22.96;43.22;95552.34;10307643;28;4540;-61
2023/06/05 16:50:34;;;;;;;;;;;;;;;22.95;43.28;95551.56;10287190;28;1895;-60
2023/06/05 16:55:34;;;;;;;;;;;;;;;22.94;43.24;95541.28;10305399;28;1834;-61
2023/06/05 17:00:38;;;;;;;;;;;;;;;22.96;43.53;95536.47;10305487;28;2118;-61
2023/06/05 17:05:38;;;;;;;;;;;;;;;22.96;43.44;95552.34;10308774;28;1807;-61
2023/06/05 17:10:39;;;;;;;;;;;;;;;22.96;43.53;95561.06;10309598;28;1931;-61
2023/06/05 17:15:39;;;;;;;;;;;;;;;22.95;43.44;95558.72;10304330;28;1914;-60
2023/06/05 17:20:40;;;;;;;;;;;;;;;22.96;43.24;95568.19;10288825;28;1899;-61
2023/06/05 17:25:40;;;;;;;;;;;;;;;22.96;43.59;95565.56;10311188;28;2002;-61
2023/06/05 17:30:42;;;;;;;;;;;;;;;22.96;43.42;95576.13;10301384;28;1945;-61
2023/06/05 17:35:42;;;;;;;;;;;;;;;22.96;43.36;95578.78;10304475;28;1847;-61
2023/06/05 17:40:42;;;;;;;;;;;;;;;22.96;43.65;95581.41;10308197;28;1958;-64
2023/06/05 17:45:43;;;;;;;;;;;;;;;22.97;43.95;95591.72;10300310;28;4496;-64
2023/06/05 17:50:43;;;;;;;;;;;;;;;22.99;44.27;95594.84;10303686;28;1889;-64
2023/06/05 17:55:43;;;;;;;;;;;;;;;23.00;44.43;95593.00;10297449;28;1963;-64
2023/06/05 18:00:43;;;;;;;;;;;;;;;23.01;44.33;95595.34;10299144;28;1906;-63
2023/06/05 18:05:44;;;;;;;;;;;;;;;23.04;44.17;95602.66;10301477;28;2031;-64
2023/06/05 18:10:44;;;;;;;;;;;;;;;23.06;44.57;95594.47;10300768;28;1995;-64
2023/06/05 18:15:44;;;;;;;;;;;;;;;23.07;44.59;95606.59;10287780;28;1906;-64
2023/06/05 18:20:45;;;;;;;;;;;;;;;23.07;44.45;95593.38;10303849;28;1979;-64
2023/06/05 18:25:45;;;;;;;;;;;;;;;23.06;44.64;95592.59;10308841;28;1854;-64
2023/06/05 18:30:45;;;;;;;;;;;;;;;23.06;44.39;95594.47;10304199;28;1869;-64
2023/06/05 18:35:46;;;;;;;;;;;;;;;23.07;44.45;95585.44;10303814;28;1886;-64
2023/06/05 18:40:46;;;;;;;;;;;;;;;23.07;44.38;95585.44;10299751;28;1995;-64
2023/06/05 18:45:46;;;;;;;;;;;;;;;23.07;44.53;95596.03;10303885;28;4469;-64
2023/06/05 18:50:47;;;;;;;;;;;;;;;23.07;44.48;95586.25;10302387;28;1870;-64
2023/06/05 18:55:47;;;;;;;;;;;;;;;23.06;44.87;95591.81;10300873;28;1898;-64
2023/06/05 19:00:47;;;;;;;;;;;;;;;23.06;44.72;95591.81;10295464;28;1938;-64
2023/06/05 19:05:48;;;;;;;;;;;;;;;23.05;44.67;95603.47;10300566;28;2281;-63
2023/06/05 19:10:49;;;;;;;;;;;;;;;23.05;44.63;95603.47;10299457;28;1863;-64
2023/06/05 19:15:49;;;;;;;;;;;;;;;23.05;44.81;95603.47;10298787;28;1891;-64
2023/06/05 19:20:50;;;;;;;;;;;;;;;23.05;44.59;95611.38;10304612;28;1944;-65
2023/06/05 19:25:50;;;;;;;;;;;;;;;23.04;44.50;95621.19;10309317;28;1838;-64
2023/06/05 19:30:50;;;;;;;;;;;;;;;23.04;44.60;95639.69;10307125;28;1831;-63
2023/06/05 19:35:50;;;;;;;;;;;;;;;23.04;44.68;95634.41;10311746;28;2180;-64
2023/06/05 19:40:51;;;;;;;;;;;;;;;23.03;44.82;95632.06;10307580;28;1887;-64
2023/06/05 19:45:51;;;;;;;;;;;;;;;23.02;44.93;95636.53;10307069;28;4421;-63
2023/06/05 19:50:51;;;;;;;;;;;;;;;23.01;45.18;95634.19;10309731;28;1979;-63
2023/06/05 19:55:51;;;;;;;;;;;;;;;23.02;45.01;95639.19;10310202;28;1823;-63
2023/06/05 20:00:52;;;;;;;;;;;;;;;23.01;45.10;95644.78;10305491;28;2270;-63
2023/06/05 20:05:52;;;;;;;;;;;;;;;23.01;44.98;95634.19;10310544;28;1836;-63
2023/06/05 20:10:52;;;;;;;;;;;;;;;23.03;44.99;95642.63;10310129;28;1890;-63
2023/06/05 20:15:55;;;;;;;;;;;;;;;23.00;44.98;95628.13;10303640;28;1886;-63
2023/06/05 20:20:56;;;;;;;;;;;;;;;23.01;45.23;95636.84;10309025;28;1982;-60
2023/06/05 20:25:56;;;;;;;;;;;;;;;23.02;45.37;95636.53;10314080;28;1473;-59
2023/06/05 20:30:56;;;;;;;;;;;;;;;23.02;45.01;95633.91;10305341;28;1801;-62
2023/06/05 20:35:57;;;;;;;;;;;;;;;23.02;45.17;95641.84;10304495;28;1907;-63
2023/06/05 20:40:58;;;;;;;;;;;;;;;23.02;45.15;95647.13;10304386;28;2046;-64
2023/06/05 20:46:02;;;;;;;;;;;;;;;23.02;45.23;95641.84;10308499;28;4493;-65
2023/06/05 20:51:07;;;;;;;;;;;;;;;23.02;45.15;95643.72;10297293;28;1939;-64
2023/06/05 20:56:07;;;;;;;;;;;;;;;23.01;45.52;95635.00;10307555;28;2043;-65
2023/06/05 21:01:09;;;;;;;;;;;;;;;23.01;45.48;95639.50;10308742;28;1887;-64
2023/06/05 21:06:09;;;;;;;;;;;;;;;23.01;45.25;95628.91;10308999;28;1871;-64
2023/06/05 21:11:10;;;;;;;;;;;;;;;23.01;45.19;95634.19;10310161;28;1915;-64
2023/06/05 21:16:11;;;;;;;;;;;;;;;23.00;45.44;95628.13;10304091;28;1977;-63
2023/06/05 21:21:12;;;;;;;;;;;;;;;23.00;45.12;95627.38;10307240;28;1893;-63
2023/06/05 21:26:12;;;;;;;;;;;;;;;23.00;45.34;95628.13;10307536;28;1910;-64
2023/06/05 21:31:12;;;;;;;;;;;;;;;23.01;45.13;95628.91;10308675;28;1878;-63
2023/06/05 21:36:12;;;;;;;;;;;;;;;23.00;45.42;95637.94;10306643;28;1904;-64
2023/06/05 21:41:13;;;;;;;;;;;;;;;23.00;45.48;95635.28;10305326;28;2189;-64
2023/06/05 21:46:13;;;;;;;;;;;;;;;23.00;45.46;95635.28;10298331;28;4587;-62
2023/06/05 21:51:13;;;;;;;;;;;;;;;23.00;45.69;95632.66;10304651;28;2008;-64
2023/06/05 21:56:14;;;;;;;;;;;;;;;22.99;45.59;95625.78;10301718;28;2383;-64
2023/06/05 22:01:14;;;;;;;;;;;;;;;22.99;45.54;95631.84;10301879;28;1958;-64
2023/06/05 22:06:17;;;;;;;;;;;;;;;23.00;45.37;95632.66;10295056;28;1982;-64
2023/06/05 22:11:19;;;;;;;;;;;;;;;22.99;45.68;95633.72;10300483;28;1735;-63
2023/06/05 22:16:20;;;;;;;;;;;;;;;22.99;45.63;95636.34;10304772;28;1946;-64
2023/06/05 22:21:21;;;;;;;;;;;;;;;22.98;45.39;95640.09;10304752;28;1888;-64
2023/06/05 22:26:21;;;;;;;;;;;;;;;22.98;45.68;95632.91;10301065;28;1960;-65
2023/06/05 22:31:21;;;;;;;;;;;;;;;22.97;45.84;95630.56;10306057;28;1938;-63
2023/06/05 22:36:27;;;;;;;;;;;;;;;22.96;45.92;95637.72;10286236;28;1915;-64
2023/06/05 22:41:29;;;;;;;;;;;;;;;22.96;45.86;95642.22;10306612;28;1983;-65
2023/06/05 22:46:29;;;;;;;;;;;;;;;22.96;46.00;95642.22;10299577;28;4421;-65
2023/06/05 22:51:32;;;;;;;;;;;;;;;22.95;45.98;95638.81;10301340;28;1875;-63
2023/06/05 22:56:32;;;;;;;;;;;;;;;22.96;45.85;95639.56;10296243;28;1918;-63
2023/06/05 23:01:33;;;;;;;;;;;;;;;22.96;45.49;95645.63;10298270;28;1894;-65
2023/06/05 23:06:34;;;;;;;;;;;;;;;22.96;45.91;95640.34;10300821;28;1833;-62
2023/06/05 23:11:35;;;;;;;;;;;;;;;22.95;46.11;95641.44;10303028;28;1878;-62
2023/06/05 23:16:35;;;;;;;;;;;;;;;22.94;46.00;95639.06;10301690;28;2341;-64
2023/06/05 23:21:36;;;;;;;;;;;;;;;22.93;46.15;95627.75;10301943;28;1887;-64
2023/06/05 23:26:36;;;;;;;;;;;;;;;22.94;45.88;95625.84;10288293;28;1927;-63
2023/06/05 23:31:38;;;;;;;;;;;;;;;22.94;46.21;95631.16;10301388;28;1831;-64
2023/06/05 23:36:41;;;;;;;;;;;;;;;22.93;46.24;95626.94;10295282;28;1949;-62
2023/06/05 23:41:46;;;;;;;;;;;;;;;22.93;46.23;95619.00;10296129;28;1867;-63
2023/06/05 23:46:46;;;;;;;;;;;;;;;22.91;46.43;95623.81;10300043;28;4475;-62
2023/06/05 23:51:46;;;;;;;;;;;;;;;22.90;46.35;95625.66;10299686;28;1925;-63
2023/06/05 23:56:46;;;;;;;;;;;;;;;22.91;46.40;95623.81;10281530;28;1909;-63
